KHNB/HNB METAR and TAF weather

Enter ICAO airport designator
Station Type Date Time Source
KHNB METAR 2019/08/25 01:56 UTC NOAA

KHNB 250156Z AUTO 06004KT 10SM CLR 19/16 A3012 RMK AO2 SLP196 T01890156


Station Type Date Time Source
KHNB Decoded METAR 2019/08/25 01:56 UTC NOAA

Station name not available
Aug 24, 2019 - 09:56 PM EDT / 2019.08.25 0156 UTC
Wind: from the ENE (060 degrees) at 5 MPH (4 KT):0
Visibility: 10 mile(s):0
Sky conditions: clear
Temperature: 66.0 F (18.9 C)
Dew Point: 60.1 F (15.6 C)
Relative Humidity: 81%
Pressure (altimeter): 30.12 in. Hg (1019 hPa)
ob: KHNB 250156Z AUTO 06004KT 10SM CLR 19/16 A3012 RMK AO2 SLP196 T01890156
cycle: 2

Station Type Date Time Source
KHNB TAF 2019/08/24 18:42 UTC NOAA

TAF KHNB 241738Z 2418/2518 08011G18KT P6SM FEW250
FM250000 05005KT P6SM SCT250
FM251400 10006KT P6SM BKN150

Example: see airport list